Time;durP1;ratioP1;P1;durP2;ratioP2;P2;SDS_P1;SDS_P2;PMS_P1;PMS_P2;Temp;Humidity;BMP_temperature;BMP_pressure;BME280_temperature;BME280_humidity;BME280_pressure;Samples;Min_cycle;Max_cycle;Signal;HPM_P1;HPM_P2
2023/04/15 00:00:37;;;;;;;4.03;3.67;;;10.70;99.90;;;;;;5116449;28;20173;-58
2023/04/15 00:03:04;;;;;;;4.32;3.58;;;10.70;99.90;;;;;;5116287;28;20173;-58
2023/04/15 00:05:30;;;;;;;4.25;3.65;;;10.70;99.90;;;;;;5116523;28;20518;-58
2023/04/15 00:07:56;;;;;;;3.95;3.50;;;10.70;99.90;;;;;;5116547;28;20170;-58
2023/04/15 00:10:22;;;;;;;4.20;3.72;;;10.70;99.90;;;;;;5116350;28;20544;-58
2023/04/15 00:12:48;;;;;;;3.80;3.40;;;10.80;99.90;;;;;;5116210;28;20200;-58
2023/04/15 00:15:14;;;;;;;3.88;3.47;;;10.80;99.90;;;;;;5116170;28;20644;-58
2023/04/15 00:17:39;;;;;;;4.70;4.20;;;10.80;99.90;;;;;;5115974;28;20173;-58
2023/04/15 00:20:06;;;;;;;5.20;3.70;;;10.70;99.90;;;;;;5116194;28;20183;-58
2023/04/15 00:22:32;;;;;;;8.02;4.40;;;10.80;99.90;;;;;;5116200;28;20205;-58
2023/04/15 00:24:57;;;;;;;5.22;4.53;;;10.80;99.90;;;;;;5116128;28;20216;-58
2023/04/15 00:27:23;;;;;;;5.93;4.15;;;10.70;99.90;;;;;;5116130;28;20624;-59
2023/04/15 00:29:49;;;;;;;4.53;3.90;;;10.70;99.90;;;;;;5115925;28;20257;-58
2023/04/15 00:32:15;;;;;;;5.18;4.00;;;10.60;99.90;;;;;;5115751;28;20201;-59
2023/04/15 00:34:41;;;;;;;7.10;3.72;;;10.70;99.90;;;;;;5116080;28;20191;-59
2023/04/15 00:37:08;;;;;;;5.10;3.95;;;10.80;99.90;;;;;;5115863;28;20209;-59
2023/04/15 00:39:34;;;;;;;3.95;3.63;;;10.80;99.90;;;;;;5115769;28;20180;-59
2023/04/15 00:42:01;;;;;;;4.25;3.55;;;10.70;99.90;;;;;;5115440;28;20628;-58
2023/04/15 00:44:27;;;;;;;5.03;3.80;;;10.80;99.90;;;;;;5115573;28;20181;-58
2023/04/15 00:46:54;;;;;;;4.78;4.00;;;10.70;99.90;;;;;;5115563;28;20524;-58
2023/04/15 00:49:19;;;;;;;3.78;3.47;;;10.70;99.90;;;;;;5115604;28;20679;-58
2023/04/15 00:51:45;;;;;;;4.35;3.95;;;10.70;99.90;;;;;;5115637;28;20181;-58
2023/04/15 00:54:11;;;;;;;5.15;3.95;;;10.70;99.90;;;;;;5097371;28;20227;-59
2023/04/15 00:56:38;;;;;;;4.13;3.72;;;10.80;99.90;;;;;;5115770;28;20256;-58
2023/04/15 00:59:05;;;;;;;4.90;3.92;;;10.80;99.90;;;;;;5115323;28;20177;-58
2023/04/15 01:01:34;;;;;;;5.30;4.18;;;10.70;99.90;;;;;;5097035;28;20200;-58
2023/04/15 01:04:00;;;;;;;4.50;3.78;;;10.80;99.90;;;;;;5115169;28;20169;-58
2023/04/15 01:06:27;;;;;;;5.00;3.92;;;10.70;99.90;;;;;;5115210;28;20169;-58
2023/04/15 01:08:54;;;;;;;4.47;3.95;;;10.70;99.90;;;;;;5115112;28;20177;-58
2023/04/15 01:11:20;;;;;;;4.75;4.05;;;10.70;99.90;;;;;;5115365;28;20170;-58
2023/04/15 01:13:47;;;;;;;3.97;3.60;;;10.70;99.90;;;;;;5114932;28;20624;-58
2023/04/15 01:16:13;;;;;;;4.47;4.07;;;10.60;99.90;;;;;;5115133;28;20532;-58
2023/04/15 01:18:39;;;;;;;5.35;4.00;;;10.50;99.90;;;;;;5115325;28;20173;-58
2023/04/15 01:21:06;;;;;;;4.38;3.60;;;10.50;99.90;;;;;;5114933;28;20230;-58
2023/04/15 01:23:35;;;;;;;4.38;3.85;;;10.50;99.90;;;;;;5114810;28;20178;-58
2023/04/15 01:26:02;;;;;;;4.03;3.47;;;10.50;99.90;;;;;;5114812;28;20245;-58
2023/04/15 01:28:28;;;;;;;4.32;3.83;;;10.50;99.90;;;;;;5114629;28;20196;-58
2023/04/15 01:31:13;;;;;;;3.70;3.40;;;10.50;99.90;;;;;;5114899;28;20520;-58
2023/04/15 01:33:40;;;;;;;4.38;3.80;;;10.40;99.90;;;;;;5114762;28;20201;-58
2023/04/15 01:36:09;;;;;;;4.10;3.80;;;10.20;99.90;;;;;;5114655;28;20648;-58
2023/04/15 01:38:36;;;;;;;4.32;3.92;;;10.20;99.90;;;;;;5114656;28;20526;-58
2023/04/15 01:41:03;;;;;;;4.57;4.10;;;10.20;99.90;;;;;;5114414;28;20165;-58
2023/04/15 01:43:29;;;;;;;4.53;4.00;;;10.20;99.90;;;;;;5114336;28;20616;-58
2023/04/15 01:45:55;;;;;;;4.50;3.88;;;10.20;99.90;;;;;;5114441;28;20181;-58
2023/04/15 01:48:21;;;;;;;5.63;4.10;;;10.10;99.90;;;;;;5114457;28;20221;-58
2023/04/15 01:50:47;;;;;;;4.38;3.78;;;10.00;99.90;;;;;;5114327;28;20248;-58
2023/04/15 01:53:14;;;;;;;4.55;4.10;;;10.10;99.90;;;;;;5114008;28;20300;-58
2023/04/15 01:55:40;;;;;;;4.40;3.90;;;10.10;99.90;;;;;;5113647;28;20532;-58
2023/04/15 01:58:05;;;;;;;4.45;4.05;;;10.20;99.90;;;;;;5096263;28;20173;-58
2023/04/15 02:00:31;;;;;;;5.30;4.00;;;10.30;99.90;;;;;;5114361;28;20178;-58
2023/04/15 02:02:58;;;;;;;4.35;3.55;;;10.30;99.90;;;;;;5114193;28;20204;-58
2023/04/15 02:05:24;;;;;;;3.80;3.50;;;10.30;99.90;;;;;;5114186;28;20169;-58
2023/04/15 02:07:50;;;;;;;4.47;4.07;;;10.20;99.90;;;;;;5114129;28;20178;-58
2023/04/15 02:10:16;;;;;;;4.60;4.10;;;10.20;99.90;;;;;;5113826;28;20204;-58
2023/04/15 02:12:42;;;;;;;4.88;4.32;;;10.10;99.90;;;;;;5114013;28;20895;-58
2023/04/15 02:15:09;;;;;;;4.40;3.90;;;10.10;99.90;;;;;;5113862;28;20277;-58
2023/04/15 02:17:36;;;;;;;4.28;3.88;;;10.10;99.90;;;;;;5113979;28;20184;-58
2023/04/15 02:20:04;;;;;;;4.28;3.75;;;10.10;99.90;;;;;;5113894;28;20165;-58
2023/04/15 02:22:30;;;;;;;4.18;3.75;;;10.10;99.90;;;;;;5113828;28;20650;-58
2023/04/15 02:24:56;;;;;;;4.47;3.95;;;10.00;99.90;;;;;;5113621;28;20191;-58
2023/04/15 02:27:22;;;;;;;4.47;4.07;;;10.00;99.90;;;;;;5113702;28;20178;-58
2023/04/15 02:29:50;;;;;;;4.75;4.07;;;10.00;99.90;;;;;;5113786;28;20181;-59
2023/04/15 02:32:16;;;;;;;4.00;3.70;;;10.10;99.90;;;;;;5113731;28;20630;-58
2023/04/15 02:34:41;;;;;;;4.60;4.20;;;10.20;99.90;;;;;;5113609;28;20215;-58
2023/04/15 02:37:11;;;;;;;4.43;4.03;;;10.20;99.90;;;;;;5113606;28;20175;-58
2023/04/15 02:39:37;;;;;;;4.05;3.70;;;10.20;99.90;;;;;;5113951;28;20182;-58
2023/04/15 02:42:04;;;;;;;4.45;4.05;;;10.30;99.90;;;;;;5113662;28;20608;-58
2023/04/15 02:44:31;;;;;;;4.40;4.00;;;10.30;99.90;;;;;;5113677;28;20181;-58
2023/04/15 02:46:57;;;;;;;4.45;4.05;;;10.10;99.90;;;;;;5113544;28;20693;-58
2023/04/15 02:49:24;;;;;;;5.00;4.38;;;9.90;99.90;;;;;;5113438;28;20299;-58
2023/04/15 02:51:50;;;;;;;4.63;4.15;;;9.90;99.90;;;;;;5113357;28;20172;-58
2023/04/15 02:54:19;;;;;;;3.80;3.50;;;9.80;99.90;;;;;;5113343;28;20683;-58
2023/04/15 02:56:45;;;;;;;4.30;3.90;;;9.90;99.90;;;;;;5113356;28;20177;-58
2023/04/15 02:59:14;;;;;;;3.95;3.65;;;9.90;99.90;;;;;;5113377;28;20169;-59
2023/04/15 03:01:40;;;;;;;4.70;4.25;;;10.00;99.90;;;;;;5113426;28;20169;-58
2023/04/15 03:04:07;;;;;;;4.30;3.90;;;10.00;99.90;;;;;;5113133;28;20181;-58
2023/04/15 03:06:33;;;;;;;4.38;3.97;;;10.00;99.90;;;;;;5116543;28;20172;-58
2023/04/15 03:08:59;;;;;;;4.88;4.00;;;10.00;99.90;;;;;;5117694;28;20161;-58
2023/04/15 03:11:28;;;;;;;4.38;3.97;;;9.90;99.90;;;;;;5117488;28;20631;-58
2023/04/15 03:13:54;;;;;;;5.15;4.65;;;9.90;99.90;;;;;;5117617;28;20211;-58
2023/04/15 03:16:19;;;;;;;5.22;4.50;;;9.90;99.90;;;;;;5117455;28;20216;-58
2023/04/15 03:18:45;;;;;;;5.13;4.25;;;9.90;99.90;;;;;;5117378;28;20177;-58
2023/04/15 03:21:11;;;;;;;5.55;4.35;;;9.80;99.90;;;;;;5117158;28;20257;-58
2023/04/15 03:23:36;;;;;;;4.60;4.03;;;9.80;99.90;;;;;;5117387;28;20209;-58
2023/04/15 03:26:03;;;;;;;4.25;3.92;;;9.80;99.90;;;;;;5117285;28;20181;-58
2023/04/15 03:28:29;;;;;;;5.35;3.95;;;9.80;99.90;;;;;;5117264;28;20169;-58
2023/04/15 03:30:54;;;;;;;4.78;4.20;;;9.90;99.90;;;;;;5117086;28;20178;-58
2023/04/15 03:33:20;;;;;;;6.35;4.07;;;9.80;99.90;;;;;;5116907;28;20291;-58
2023/04/15 03:35:46;;;;;;;5.47;4.25;;;9.90;99.90;;;;;;5098604;28;20185;-58
2023/04/15 03:38:11;;;;;;;7.25;4.63;;;10.10;99.90;;;;;;5117406;28;20676;-58
2023/04/15 03:40:41;;;;;;;6.57;4.55;;;10.00;99.90;;;;;;5117178;28;20177;-58
2023/04/15 03:43:07;;;;;;;4.80;4.28;;;10.00;99.90;;;;;;5116723;28;20580;-58
2023/04/15 03:45:32;;;;;;;9.07;4.80;;;10.10;99.90;;;;;;5116844;28;20208;-58
2023/04/15 03:47:58;;;;;;;6.20;4.90;;;10.10;99.90;;;;;;5116872;28;20244;-58
2023/04/15 03:50:24;;;;;;;5.88;5.00;;;10.10;99.90;;;;;;5116646;28;20201;-58
2023/04/15 03:52:50;;;;;;;5.15;4.55;;;10.10;99.90;;;;;;5116548;28;20226;-58
2023/04/15 03:55:15;;;;;;;5.72;4.85;;;10.00;99.90;;;;;;5116741;28;20246;-58
2023/04/15 03:57:41;;;;;;;5.32;4.50;;;10.10;99.90;;;;;;5116686;28;20181;-58
2023/04/15 04:00:09;;;;;;;4.97;4.00;;;10.00;99.90;;;;;;5116444;28;20173;-58
2023/04/15 04:02:35;;;;;;;7.15;4.70;;;9.90;99.90;;;;;;5116364;28;20182;-58
2023/04/15 04:05:00;;;;;;;5.28;4.35;;;10.00;99.90;;;;;;5116289;28;20314;-58
2023/04/15 04:07:26;;;;;;;5.22;4.72;;;10.00;99.90;;;;;;5116344;28;20178;-58
2023/04/15 04:09:52;;;;;;;5.78;4.90;;;10.00;99.90;;;;;;5116348;28;20716;-58
2023/04/15 04:12:17;;;;;;;6.25;4.70;;;10.00;99.90;;;;;;5116274;28;20906;-58
2023/04/15 04:14:43;;;;;;;7.03;4.70;;;10.00;99.90;;;;;;5116294;28;20635;-58
2023/04/15 04:17:09;;;;;;;4.43;3.85;;;10.00;99.90;;;;;;5115480;28;20256;-58
2023/04/15 04:19:35;;;;;;;6.20;4.60;;;9.80;99.90;;;;;;5116085;28;20180;-58
2023/04/15 04:22:00;;;;;;;6.50;4.85;;;9.70;99.90;;;;;;5116241;28;20170;-58
2023/04/15 04:24:26;;;;;;;5.72;4.68;;;9.80;99.90;;;;;;5116191;28;20640;-58
2023/04/15 04:26:52;;;;;;;6.78;4.50;;;9.90;99.90;;;;;;5115920;28;20256;-58
2023/04/15 04:29:17;;;;;;;5.95;4.38;;;9.90;99.90;;;;;;5116050;28;20185;-58
2023/04/15 04:31:43;;;;;;;5.60;4.65;;;10.00;99.90;;;;;;5115882;28;20172;-58
2023/04/15 04:34:09;;;;;;;5.72;4.85;;;9.90;99.90;;;;;;5115749;28;20288;-58
2023/04/15 04:36:34;;;;;;;6.35;4.53;;;9.90;99.90;;;;;;5115986;28;20178;-59
2023/04/15 04:39:00;;;;;;;6.13;4.65;;;9.90;99.90;;;;;;5115907;28;20206;-58
2023/04/15 04:41:26;;;;;;;8.38;4.75;;;10.00;99.90;;;;;;5115799;28;20169;-58
2023/04/15 04:43:51;;;;;;;7.53;5.18;;;10.00;99.90;;;;;;5115719;28;20182;-58
2023/04/15 04:46:17;;;;;;;6.28;4.72;;;10.00;99.90;;;;;;5115626;28;20252;-58
2023/04/15 04:48:43;;;;;;;5.97;5.00;;;10.00;99.90;;;;;;5115576;28;20221;-58
2023/04/15 04:51:09;;;;;;;6.22;4.88;;;10.00;99.90;;;;;;5115380;28;20186;-58
2023/04/15 04:53:36;;;;;;;6.80;5.47;;;10.00;99.90;;;;;;5115577;28;20671;-58
2023/04/15 04:56:02;;;;;;;9.52;5.25;;;10.00;99.90;;;;;;5115532;28;20165;-58
2023/04/15 04:58:28;;;;;;;5.57;4.65;;;10.00;99.90;;;;;;5115434;28;20183;-58
2023/04/15 05:00:53;;;;;;;6.82;4.90;;;9.90;99.90;;;;;;5115326;28;20173;-58
2023/04/15 05:03:20;;;;;;;5.38;4.40;;;9.90;99.90;;;;;;5115238;28;20173;-58
2023/04/15 05:05:48;;;;;;;6.93;4.97;;;9.90;99.90;;;;;;5097136;28;20180;-58
2023/04/15 05:08:14;;;;;;;7.32;5.63;;;10.00;99.90;;;;;;5115351;28;20176;-58
2023/04/15 05:10:40;;;;;;;8.32;5.70;;;10.00;99.90;;;;;;5115261;28;20530;-58
2023/04/15 05:13:05;;;;;;;5.45;4.95;;;10.00;99.90;;;;;;5115152;28;20299;-58
2023/04/15 05:15:33;;;;;;;7.50;4.97;;;9.90;99.90;;;;;;5115249;28;20535;-58
2023/04/15 05:17:59;;;;;;;6.55;5.20;;;9.90;99.90;;;;;;5114775;28;20181;-58
2023/04/15 05:20:25;;;;;;;7.93;5.63;;;9.90;99.90;;;;;;5115201;28;20199;-58
2023/04/15 05:22:50;;;;;;;8.55;5.93;;;10.00;99.90;;;;;;5097097;28;20268;-58
2023/04/15 05:25:17;;;;;;;9.07;5.63;;;9.90;99.90;;;;;;5115070;27;20173;-58
2023/04/15 05:27:42;;;;;;;7.43;5.90;;;9.80;99.90;;;;;;5096759;28;20174;-59
2023/04/15 05:30:09;;;;;;;7.50;5.72;;;9.80;99.90;;;;;;5079182;28;20173;-59
2023/04/15 05:32:35;;;;;;;7.60;5.18;;;9.80;99.90;;;;;;5079540;28;20672;-58
2023/04/15 05:35:01;;;;;;;8.00;5.75;;;9.80;99.90;;;;;;5079782;28;20231;-58
2023/04/15 05:37:27;;;;;;;7.35;4.82;;;9.80;99.90;;;;;;5114094;28;20177;-57
2023/04/15 05:39:53;;;;;;;8.02;5.90;;;9.80;99.90;;;;;;5113867;28;20173;-58
2023/04/15 05:42:19;;;;;;;8.75;5.30;;;9.90;99.90;;;;;;5114460;28;20173;-57
2023/04/15 05:44:45;;;;;;;6.97;4.88;;;9.90;99.90;;;;;;5113746;28;20189;-57
2023/04/15 05:47:10;;;;;;;5.65;4.97;;;9.80;99.90;;;;;;5113657;28;20172;-59
2023/04/15 05:49:36;;;;;;;9.13;5.97;;;9.90;99.90;;;;;;5113890;28;20223;-58
2023/04/15 05:52:02;;;;;;;6.78;4.70;;;9.90;99.90;;;;;;5113880;28;20174;-57
2023/04/15 05:54:28;;;;;;;8.38;5.32;;;9.80;99.90;;;;;;5095874;28;20234;-56
2023/04/15 05:56:53;;;;;;;10.13;6.20;;;9.80;99.90;;;;;;5114081;28;20177;-57
2023/04/15 05:59:19;;;;;;;6.43;5.10;;;9.90;99.90;;;;;;5114106;28;20177;-57
2023/04/15 06:01:45;;;;;;;6.90;4.90;;;9.90;99.90;;;;;;5114106;28;20166;-57
2023/04/15 06:04:11;;;;;;;6.28;5.22;;;10.00;99.90;;;;;;5114178;28;20169;-57
2023/04/15 06:06:37;;;;;;;8.60;5.47;;;9.80;99.90;;;;;;5113682;28;20178;-58
2023/04/15 06:09:03;;;;;;;18.35;14.00;;;9.90;99.90;;;;;;5111642;28;20182;-57
2023/04/15 06:11:29;;;;;;;53.85;44.70;;;9.90;99.90;;;;;;5113620;28;20177;-57
2023/04/15 06:13:55;;;;;;;11.45;6.75;;;9.90;99.90;;;;;;5113645;28;20220;-57
2023/04/15 06:16:21;;;;;;;8.25;6.72;;;9.90;99.90;;;;;;5112960;28;20185;-58
2023/04/15 06:18:47;;;;;;;8.73;6.25;;;10.00;99.90;;;;;;5113072;28;20185;-58
2023/04/15 06:21:14;;;;;;;9.18;6.38;;;10.00;99.90;;;;;;5095505;28;20177;-57
2023/04/15 06:23:42;;;;;;;7.72;6.05;;;10.20;99.90;;;;;;5110515;28;20177;-57
2023/04/15 06:26:08;;;;;;;8.38;6.63;;;10.30;99.90;;;;;;5113242;28;20177;-57
2023/04/15 06:28:34;;;;;;;9.95;6.90;;;10.40;99.90;;;;;;5112973;28;20260;-57
2023/04/15 06:31:02;;;;;;;9.85;7.00;;;10.60;99.90;;;;;;5112998;28;20170;-57
2023/04/15 06:33:28;;;;;;;10.55;7.00;;;10.60;99.90;;;;;;5113012;28;20295;-56
2023/04/15 06:35:54;;;;;;;10.23;7.32;;;10.60;99.90;;;;;;5078345;28;20795;-57
2023/04/15 06:38:20;;;;;;;8.80;7.35;;;10.80;99.90;;;;;;5113312;28;20646;-55
2023/04/15 06:40:45;;;;;;;8.73;7.28;;;10.90;99.90;;;;;;5113026;28;20581;-58
2023/04/15 06:43:11;;;;;;;9.20;7.22;;;11.00;99.90;;;;;;5113434;28;20181;-57
2023/04/15 06:45:37;;;;;;;8.63;6.85;;;11.00;99.90;;;;;;5113344;28;20251;-57
2023/04/15 06:48:03;;;;;;;12.70;8.20;;;10.80;99.90;;;;;;5113478;28;20623;-57
2023/04/15 06:50:28;;;;;;;10.20;7.97;;;10.80;99.90;;;;;;5113296;28;20256;-57
2023/04/15 06:52:55;;;;;;;11.10;8.30;;;10.90;99.90;;;;;;5113378;28;20602;-57
2023/04/15 06:55:21;;;;;;;10.82;8.30;;;10.80;99.90;;;;;;5113279;28;20203;-56
2023/04/15 06:57:46;;;;;;;12.32;8.80;;;10.80;99.90;;;;;;5113176;28;20169;-58
2023/04/15 07:00:13;;;;;;;10.52;8.88;;;10.90;99.90;;;;;;5112972;28;20226;-57
2023/04/15 07:02:38;;;;;;;11.07;9.98;;;10.80;99.90;;;;;;5113089;28;20268;-57
2023/04/15 07:05:06;;;;;;;12.75;10.27;;;10.80;99.90;;;;;;5113412;28;20318;-57
2023/04/15 07:07:31;;;;;;;13.15;9.50;;;10.90;99.90;;;;;;5113421;28;20256;-57
2023/04/15 07:09:57;;;;;;;11.57;10.20;;;11.00;99.90;;;;;;5113267;28;20223;-56
2023/04/15 07:12:23;;;;;;;13.38;10.18;;;11.00;99.90;;;;;;5113221;28;20188;-58
2023/04/15 07:14:48;;;;;;;12.95;10.57;;;11.10;99.90;;;;;;5113046;28;20173;-57
2023/04/15 07:17:14;;;;;;;11.88;10.27;;;11.10;99.90;;;;;;5095485;28;20189;-57
2023/04/15 07:19:40;;;;;;;13.15;10.52;;;11.30;99.90;;;;;;5113139;28;20178;-57
2023/04/15 07:22:06;;;;;;;11.85;10.75;;;11.50;99.90;;;;;;5095091;28;20170;-57
2023/04/15 07:24:32;;;;;;;12.80;11.18;;;11.70;99.90;;;;;;5113129;28;20640;-57
2023/04/15 07:26:58;;;;;;;11.82;10.63;;;11.90;99.90;;;;;;5113154;28;20201;-57
2023/04/15 07:29:25;;;;;;;12.20;10.50;;;12.00;99.90;;;;;;5113020;28;20177;-57
2023/04/15 07:31:50;;;;;;;11.65;10.45;;;11.90;99.90;;;;;;5095060;28;20604;-57
2023/04/15 07:34:16;;;;;;;11.13;9.52;;;11.70;99.90;;;;;;5113081;28;20284;-56
2023/04/15 07:36:42;;;;;;;12.88;11.32;;;11.80;99.90;;;;;;5113106;28;20582;-56
2023/04/15 07:39:08;;;;;;;12.95;10.30;;;12.00;99.90;;;;;;5112988;28;20570;-56
2023/04/15 07:41:33;;;;;;;11.18;10.02;;;12.20;99.90;;;;;;5113052;28;20554;-57
2023/04/15 07:43:59;;;;;;;13.35;10.05;;;12.20;99.90;;;;;;5112971;28;20188;-57
2023/04/15 07:46:26;;;;;;;11.55;10.35;;;12.20;99.90;;;;;;5113128;28;20187;-57
2023/04/15 07:48:52;;;;;;;11.30;9.98;;;12.30;99.90;;;;;;5112971;28;20221;-57
2023/04/15 07:51:19;;;;;;;10.90;9.73;;;12.50;99.90;;;;;;5113081;28;20166;-57
2023/04/15 07:53:45;;;;;;;12.45;10.25;;;12.60;99.90;;;;;;5116000;28;20701;-56
2023/04/15 07:56:11;;;;;;;11.40;9.85;;;12.70;99.90;;;;;;5116881;28;20182;-57
2023/04/15 07:58:37;;;;;;;10.77;9.23;;;12.90;99.90;;;;;;5116514;28;20192;-56
2023/04/15 08:01:04;;;;;;;10.73;8.93;;;13.10;99.90;;;;;;5116739;28;20180;-57
2023/04/15 08:03:30;;;;;;;12.82;9.65;;;13.10;99.90;;;;;;5098264;28;20181;-57
2023/04/15 08:05:56;;;;;;;10.25;8.60;;;13.30;99.90;;;;;;5116490;28;20172;-55
2023/04/15 08:08:21;;;;;;;8.82;7.93;;;13.40;99.90;;;;;;5098116;28;20272;-58
2023/04/15 08:10:47;;;;;;;10.07;8.30;;;13.40;99.90;;;;;;5116339;28;20314;-56
2023/04/15 08:13:13;;;;;;;9.38;8.27;;;13.60;99.90;;;;;;5116141;28;20193;-55
2023/04/15 08:15:39;;;;;;;12.15;9.07;;;13.90;99.90;;;;;;5116351;28;20581;-56
2023/04/15 08:18:04;;;;;;;12.23;8.75;;;14.00;99.90;;;;;;5116308;28;20273;-55
2023/04/15 08:20:30;;;;;;;8.82;7.32;;;14.00;99.90;;;;;;5116211;28;20272;-56
2023/04/15 08:22:56;;;;;;;10.23;7.72;;;13.80;99.90;;;;;;5116156;28;20188;-56
2023/04/15 08:25:21;;;;;;;9.60;7.93;;;13.80;99.90;;;;;;5115985;28;20174;-56
2023/04/15 08:27:47;;;;;;;11.98;7.68;;;14.00;99.90;;;;;;5115753;28;20214;-57
2023/04/15 08:30:14;;;;;;;10.50;7.57;;;14.10;99.90;;;;;;5116104;28;20200;-56
2023/04/15 08:32:45;;;;;;;9.05;7.45;;;14.10;99.90;;;;;;5115888;28;20201;-55
2023/04/15 08:35:10;;;;;;;10.25;7.43;;;14.20;99.90;;;;;;5115903;28;20173;-57
2023/04/15 08:37:36;;;;;;;9.13;7.35;;;14.10;99.90;;;;;;5115743;28;20264;-56
2023/04/15 08:40:02;;;;;;;9.35;8.05;;;14.10;99.90;;;;;;5115660;28;20173;-57
2023/04/15 08:42:34;;;;;;;10.57;7.80;;;14.10;99.90;;;;;;5115643;28;20615;-56
2023/04/15 08:45:02;;;;;;;10.23;7.70;;;14.40;99.90;;;;;;5115830;28;20201;-57
2023/04/15 08:47:32;;;;;;;8.35;7.15;;;14.40;99.90;;;;;;5115376;28;20551;-56
2023/04/15 08:49:58;;;;;;;10.60;7.82;;;14.40;99.90;;;;;;5115582;28;20631;-57
2023/04/15 08:52:25;;;;;;;7.85;7.15;;;14.40;99.90;;;;;;5115384;28;20188;-56
2023/04/15 08:54:56;;;;;;;8.55;7.38;;;14.50;99.90;;;;;;5115404;28;20217;-56
2023/04/15 08:57:28;;;;;;;8.38;7.47;;;14.50;99.90;;;;;;5115565;28;20169;-56
2023/04/15 08:59:57;;;;;;;11.77;7.72;;;14.40;99.90;;;;;;5115652;28;20165;-56
2023/04/15 09:02:25;;;;;;;8.35;7.50;;;14.40;99.90;;;;;;5115310;28;20172;-57
2023/04/15 09:04:50;;;;;;;8.50;7.28;;;14.70;99.90;;;;;;5115013;28;20260;-56
2023/04/15 09:07:16;;;;;;;7.82;7.03;;;14.90;99.90;;;;;;5115066;28;20249;-56
2023/04/15 09:09:42;;;;;;;8.07;6.95;;;15.00;99.90;;;;;;5115402;28;20534;-56
2023/04/15 09:12:09;;;;;;;6.07;5.55;;;15.30;99.90;;;;;;5115203;28;20174;-56
2023/04/15 09:14:35;;;;;;;6.75;6.10;;;15.30;99.90;;;;;;5115143;28;20195;-57
2023/04/15 09:17:04;;;;;;;7.78;5.38;;;15.40;99.90;;;;;;5114934;28;20260;-57
2023/04/15 09:19:30;;;;;;;6.18;5.57;;;15.70;99.90;;;;;;5115000;28;20222;-56
2023/04/15 09:21:58;;;;;;;6.25;4.70;;;15.70;99.90;;;;;;5114748;28;20197;-56
2023/04/15 09:24:25;;;;;;;5.07;4.30;;;15.80;98.90;;;;;;5115042;28;20263;-56
2023/04/15 09:26:55;;;;;;;5.20;4.25;;;15.90;99.90;;;;;;5114952;28;20530;-56
2023/04/15 09:29:25;;;;;;;5.40;4.15;;;16.10;99.10;;;;;;5115014;28;20169;-56
2023/04/15 09:31:51;;;;;;;5.65;3.78;;;15.90;96.10;;;;;;5114636;28;20624;-57
2023/04/15 09:34:17;;;;;;;6.70;3.80;;;15.80;97.10;;;;;;5114486;28;20204;-56
2023/04/15 09:36:46;;;;;;;5.55;3.80;;;15.80;95.70;;;;;;5114858;28;20632;-56
2023/04/15 09:39:12;;;;;;;5.43;4.18;;;15.80;97.40;;;;;;5114616;28;20637;-56
2023/04/15 09:41:39;;;;;;;4.55;4.13;;;16.10;97.20;;;;;;5114588;28;20227;-56
2023/04/15 09:44:05;;;;;;;5.47;3.92;;;16.30;97.10;;;;;;5114542;28;20192;-56
2023/04/15 09:46:44;;;;;;;6.55;4.00;;;16.50;95.70;;;;;;5114468;28;20198;-56
2023/04/15 09:49:11;;;;;;;5.65;4.05;;;16.30;94.60;;;;;;5114559;28;20312;-56
2023/04/15 09:51:37;;;;;;;5.45;4.22;;;16.00;95.90;;;;;;5114523;28;20575;-57
2023/04/15 09:54:03;;;;;;;4.30;3.90;;;15.80;97.00;;;;;;5114287;28;20197;-57
2023/04/15 09:56:41;;;;;;;5.10;4.55;;;15.70;98.20;;;;;;5114373;28;20173;-56
2023/04/15 09:59:09;;;;;;;4.85;4.00;;;15.80;97.30;;;;;;5114435;28;20226;-56
2023/04/15 10:01:35;;;;;;;5.43;3.70;;;15.70;98.80;;;;;;5114243;28;20628;-56
2023/04/15 10:04:03;;;;;;;6.07;4.07;;;15.80;98.80;;;;;;5114299;28;20289;-57
2023/04/15 10:06:30;;;;;;;6.13;4.20;;;16.00;97.50;;;;;;5114292;28;20173;-56
2023/04/15 10:08:57;;;;;;;4.43;3.88;;;16.20;97.60;;;;;;5114205;28;20176;-58
2023/04/15 10:11:23;;;;;;;5.05;4.13;;;16.30;97.10;;;;;;5114106;28;20169;-58
2023/04/15 10:13:50;;;;;;;5.90;4.10;;;16.10;94.50;;;;;;5113951;28;20529;-57
2023/04/15 10:16:19;;;;;;;5.35;3.85;;;16.10;94.70;;;;;;5113630;28;20596;-58
2023/04/15 10:18:54;;;;;;;4.95;3.53;;;15.80;94.00;;;;;;5113954;28;20592;-57
2023/04/15 10:21:22;;;;;;;5.45;3.53;;;15.70;93.90;;;;;;5114157;28;20161;-58
2023/04/15 10:23:48;;;;;;;4.32;3.70;;;15.90;95.70;;;;;;5113808;28;20177;-57
2023/04/15 10:26:16;;;;;;;4.70;3.80;;;16.00;93.50;;;;;;5113860;28;20193;-58
2023/04/15 10:28:46;;;;;;;4.75;3.60;;;15.80;93.90;;;;;;5113773;28;20509;-58
2023/04/15 10:31:15;;;;;;;4.90;4.05;;;16.00;93.50;;;;;;5113898;28;20178;-57
2023/04/15 10:33:42;;;;;;;4.47;3.80;;;16.00;94.70;;;;;;5113855;28;20197;-57
2023/04/15 10:36:09;;;;;;;4.80;3.67;;;16.10;94.10;;;;;;5113756;28;20290;-58
2023/04/15 10:38:34;;;;;;;4.07;3.70;;;16.20;93.00;;;;;;5113625;28;20176;-58
2023/04/15 10:41:18;;;;;;;4.65;3.28;;;16.20;94.70;;;;;;5113539;28;20222;-58
2023/04/15 10:43:54;;;;;;;2.75;2.30;;;16.20;91.60;;;;;;5113804;28;20200;-57
2023/04/15 10:46:22;;;;;;;2.78;2.10;;;16.00;86.60;;;;;;5113755;28;20164;-57
2023/04/15 10:48:52;;;;;;;2.95;2.65;;;16.00;82.80;;;;;;5113700;28;20229;-57
2023/04/15 10:51:40;;;;;;;4.72;2.75;;;15.90;86.60;;;;;;5113570;28;20221;-58
2023/04/15 10:54:12;;;;;;;4.10;3.50;;;16.00;88.30;;;;;;5113684;28;20696;-58
2023/04/15 10:56:44;;;;;;;4.53;3.55;;;16.20;91.90;;;;;;5114237;28;20177;-58
2023/04/15 10:59:10;;;;;;;5.90;4.55;;;16.30;90.50;;;;;;5113567;28;20170;-57
2023/04/15 11:01:59;;;;;;;5.22;4.07;;;16.50;91.70;;;;;;5113546;28;20540;-57
2023/04/15 11:04:56;;;;;;;3.13;2.83;;;16.50;93.20;;;;;;5113652;28;20176;-57
2023/04/15 11:07:48;;;;;;;3.03;2.50;;;16.50;88.00;;;;;;5113366;28;20173;-57
2023/04/15 11:10:16;;;;;;;2.95;2.60;;;16.50;78.90;;;;;;5104051;28;20217;-57
2023/04/15 11:12:43;;;;;;;3.15;2.80;;;16.40;80.00;;;;;;5113476;28;20215;-57
2023/04/15 11:15:39;;;;;;;2.83;2.63;;;16.50;82.60;;;;;;5113255;28;20662;-57
2023/04/15 11:18:21;;;;;;;3.30;3.00;;;16.50;80.00;;;;;;5095172;28;20170;-57
2023/04/15 11:20:55;;;;;;;4.85;2.50;;;16.60;82.40;;;;;;5113203;28;20173;-57
2023/04/15 11:23:39;;;;;;;3.85;2.92;;;16.80;84.60;;;;;;5113402;28;20173;-57
2023/04/15 11:26:10;;;;;;;4.60;3.42;;;16.80;84.70;;;;;;5113167;28;20197;-57
2023/04/15 11:28:37;;;;;;;2.58;2.38;;;16.70;86.00;;;;;;5116330;28;20591;-57
2023/04/15 11:31:14;;;;;;;3.83;2.65;;;16.60;79.90;;;;;;5098872;28;20581;-57
2023/04/15 11:33:52;;;;;;;4.15;2.60;;;16.50;84.60;;;;;;5117205;28;20213;-57
2023/04/15 11:36:18;;;;;;;3.17;2.50;;;16.20;79.50;;;;;;5117151;28;20188;-57
2023/04/15 11:38:46;;;;;;;2.85;2.55;;;16.40;79.80;;;;;;5099000;28;20170;-57
2023/04/15 11:41:12;;;;;;;2.90;2.70;;;16.40;81.70;;;;;;5116906;28;20173;-57
2023/04/15 11:43:37;;;;;;;3.80;3.50;;;16.40;84.00;;;;;;5116837;28;20585;-57
2023/04/15 11:46:03;;;;;;;4.53;3.40;;;16.40;84.20;;;;;;5116789;28;20264;-57
2023/04/15 11:48:32;;;;;;;5.63;3.35;;;16.20;84.30;;;;;;5116702;28;20229;-58
2023/04/15 11:51:00;;;;;;;4.43;3.65;;;16.40;85.60;;;;;;5116558;28;20607;-58
2023/04/15 11:53:46;;;;;;;4.88;3.85;;;16.60;86.60;;;;;;5116778;28;20201;-57
2023/04/15 11:56:20;;;;;;;4.40;4.00;;;16.70;86.70;;;;;;5116442;28;20532;-57
2023/04/15 11:58:46;;;;;;;3.30;3.05;;;16.80;89.10;;;;;;5116791;28;20170;-57
2023/04/15 12:01:12;;;;;;;4.25;3.28;;;16.50;83.10;;;;;;5116674;28;20651;-58
2023/04/15 12:03:42;;;;;;;4.22;3.10;;;16.40;88.00;;;;;;5116951;28;20334;-57
2023/04/15 12:06:22;;;;;;;4.05;3.03;;;16.30;84.90;;;;;;5116188;28;20226;-57
2023/04/15 12:09:06;;;;;;;3.78;2.55;;;16.20;86.40;;;;;;5116321;28;20184;-60
2023/04/15 12:11:35;;;;;;;3.17;2.42;;;16.30;86.00;;;;;;5116211;28;20200;-58
2023/04/15 12:14:07;;;;;;;3.55;2.88;;;16.20;83.00;;;;;;5116214;28;20312;-58
2023/04/15 12:16:35;;;;;;;3.08;2.50;;;16.20;83.70;;;;;;5116284;28;20545;-58
2023/04/15 12:19:05;;;;;;;3.92;2.70;;;16.30;81.00;;;;;;5116201;28;20166;-58
2023/04/15 12:21:35;;;;;;;3.67;3.28;;;16.20;82.10;;;;;;5116539;28;20174;-58
2023/04/15 12:24:04;;;;;;;5.07;3.42;;;16.20;84.00;;;;;;5116072;28;20653;-58
2023/04/15 12:26:53;;;;;;;4.28;3.70;;;16.20;85.30;;;;;;5116161;28;20165;-58
2023/04/15 12:29:24;;;;;;;4.50;4.10;;;16.10;87.00;;;;;;5116035;28;20176;-58
2023/04/15 12:31:58;;;;;;;6.10;3.55;;;16.30;87.80;;;;;;5116017;28;20588;-58
2023/04/15 12:34:30;;;;;;;3.70;3.40;;;16.20;87.90;;;;;;5115990;28;20216;-58
2023/04/15 12:36:56;;;;;;;5.60;3.38;;;16.10;89.10;;;;;;5115846;28;20205;-58
2023/04/15 12:39:27;;;;;;;3.95;2.72;;;16.10;87.10;;;;;;5115246;28;20177;-58
2023/04/15 12:41:53;;;;;;;3.25;2.63;;;15.90;87.00;;;;;;5115842;28;20177;-58
2023/04/15 12:44:21;;;;;;;3.03;2.50;;;15.80;84.30;;;;;;5115636;28;20180;-58
2023/04/15 12:46:47;;;;;;;5.95;3.30;;;15.70;84.30;;;;;;5097463;28;20539;-57